sensor_id;sensor_type;location;lat;lon;timestamp;P1;durP1;ratioP1;P2;durP2;ratioP2
61642;SDS011;47551;52.506;4.678;2022-09-30T00:00:07;9.67;;;8.40;;
61642;SDS011;47551;52.506;4.678;2022-09-30T00:00:27;9.32;;;8.18;;
61642;SDS011;47551;52.506;4.678;2022-09-30T00:00:47;9.73;;;8.37;;
61642;SDS011;47551;52.506;4.678;2022-09-30T00:01:08;9.73;;;8.20;;
61642;SDS011;47551;52.506;4.678;2022-09-30T00:01:28;9.80;;;8.63;;
61642;SDS011;47551;52.506;4.678;2022-09-30T00:01:49;9.90;;;8.40;;
61642;SDS011;47551;52.506;4.678;2022-09-30T00:02:10;9.55;;;8.55;;
61642;SDS011;47551;52.506;4.678;2022-09-30T00:02:31;9.57;;;8.48;;
61642;SDS011;47551;52.506;4.678;2022-09-30T00:02:51;9.80;;;8.77;;
61642;SDS011;47551;52.506;4.678;2022-09-30T00:03:11;9.70;;;8.37;;
61642;SDS011;47551;52.506;4.678;2022-09-30T00:03:31;9.50;;;8.17;;
61642;SDS011;47551;52.506;4.678;2022-09-30T00:03:52;9.30;;;8.13;;
61642;SDS011;47551;52.506;4.678;2022-09-30T00:04:14;9.65;;;8.13;;
61642;SDS011;47551;52.506;4.678;2022-09-30T00:04:35;9.38;;;8.15;;
61642;SDS011;47551;52.506;4.678;2022-09-30T00:04:55;9.60;;;8.60;;
61642;SDS011;47551;52.506;4.678;2022-09-30T00:05:15;10.27;;;8.93;;
61642;SDS011;47551;52.506;4.678;2022-09-30T00:05:36;9.77;;;8.68;;
61642;SDS011;47551;52.506;4.678;2022-09-30T00:05:57;9.70;;;8.57;;
61642;SDS011;47551;52.506;4.678;2022-09-30T00:06:17;9.70;;;8.70;;
61642;SDS011;47551;52.506;4.678;2022-09-30T00:06:39;10.02;;;8.60;;
61642;SDS011;47551;52.506;4.678;2022-09-30T00:07:00;9.70;;;8.50;;
61642;SDS011;47551;52.506;4.678;2022-09-30T00:07:20;9.70;;;8.70;;
61642;SDS011;47551;52.506;4.678;2022-09-30T00:07:40;10.05;;;9.05;;
61642;SDS011;47551;52.506;4.678;2022-09-30T00:08:00;9.70;;;8.60;;
61642;SDS011;47551;52.506;4.678;2022-09-30T00:08:20;10.13;;;8.60;;
61642;SDS011;47551;52.506;4.678;2022-09-30T00:08:40;9.43;;;8.50;;
61642;SDS011;47551;52.506;4.678;2022-09-30T00:09:01;9.53;;;8.57;;
61642;SDS011;47551;52.506;4.678;2022-09-30T00:09:22;9.50;;;8.57;;
61642;SDS011;47551;52.506;4.678;2022-09-30T00:09:42;9.57;;;8.57;;
61642;SDS011;47551;52.506;4.678;2022-09-30T00:10:02;9.83;;;8.50;;
61642;SDS011;47551;52.506;4.678;2022-09-30T00:10:23;11.18;;;8.88;;
61642;SDS011;47551;52.506;4.678;2022-09-30T00:10:43;10.50;;;8.77;;
61642;SDS011;47551;52.506;4.678;2022-09-30T00:11:04;9.53;;;8.53;;
61642;SDS011;47551;52.506;4.678;2022-09-30T00:11:27;10.25;;;8.77;;
61642;SDS011;47551;52.506;4.678;2022-09-30T00:11:47;9.40;;;8.45;;
61642;SDS011;47551;52.506;4.678;2022-09-30T00:12:08;9.53;;;8.53;;
61642;SDS011;47551;52.506;4.678;2022-09-30T00:12:28;10.23;;;9.00;;
61642;SDS011;47551;52.506;4.678;2022-09-30T00:12:50;10.88;;;8.50;;
61642;SDS011;47551;52.506;4.678;2022-09-30T00:13:11;11.13;;;8.80;;
61642;SDS011;47551;52.506;4.678;2022-09-30T00:13:32;9.70;;;8.70;;
61642;SDS011;47551;52.506;4.678;2022-09-30T00:13:53;9.30;;;8.38;;
61642;SDS011;47551;52.506;4.678;2022-09-30T00:14:15;9.73;;;8.73;;
61642;SDS011;47551;52.506;4.678;2022-09-30T00:14:36;9.70;;;8.70;;
61642;SDS011;47551;52.506;4.678;2022-09-30T00:14:56;10.10;;;8.80;;
61642;SDS011;47551;52.506;4.678;2022-09-30T00:15:17;9.93;;;8.70;;
61642;SDS011;47551;52.506;4.678;2022-09-30T00:15:37;10.43;;;8.73;;
61642;SDS011;47551;52.506;4.678;2022-09-30T00:15:57;10.02;;;8.88;;
61642;SDS011;47551;52.506;4.678;2022-09-30T00:16:18;9.80;;;8.67;;
61642;SDS011;47551;52.506;4.678;2022-09-30T00:16:40;9.70;;;8.60;;
61642;SDS011;47551;52.506;4.678;2022-09-30T00:17:00;9.15;;;8.13;;
61642;SDS011;47551;52.506;4.678;2022-09-30T00:17:20;9.47;;;8.40;;
61642;SDS011;47551;52.506;4.678;2022-09-30T00:17:40;9.67;;;8.67;;
61642;SDS011;47551;52.506;4.678;2022-09-30T00:18:00;9.47;;;8.47;;
61642;SDS011;47551;52.506;4.678;2022-09-30T00:18:20;10.07;;;8.30;;
61642;SDS011;47551;52.506;4.678;2022-09-30T00:18:41;9.60;;;8.27;;
61642;SDS011;47551;52.506;4.678;2022-09-30T00:19:02;9.23;;;8.23;;
61642;SDS011;47551;52.506;4.678;2022-09-30T00:19:23;9.35;;;8.32;;
61642;SDS011;47551;52.506;4.678;2022-09-30T00:19:43;9.63;;;8.63;;
61642;SDS011;47551;52.506;4.678;2022-09-30T00:20:04;9.83;;;8.43;;
61642;SDS011;47551;52.506;4.678;2022-09-30T00:20:24;10.07;;;8.30;;
61642;SDS011;47551;52.506;4.678;2022-09-30T00:20:44;9.77;;;8.50;;
61642;SDS011;47551;52.506;4.678;2022-09-30T00:21:05;9.87;;;8.40;;
61642;SDS011;47551;52.506;4.678;2022-09-30T00:21:26;9.43;;;8.43;;
61642;SDS011;47551;52.506;4.678;2022-09-30T00:21:47;10.32;;;8.70;;
61642;SDS011;47551;52.506;4.678;2022-09-30T00:22:07;9.93;;;8.90;;
61642;SDS011;47551;52.506;4.678;2022-09-30T00:22:27;9.47;;;8.40;;
61642;SDS011;47551;52.506;4.678;2022-09-30T00:22:48;10.07;;;8.40;;
61642;SDS011;47551;52.506;4.678;2022-09-30T00:23:08;10.20;;;8.73;;
61642;SDS011;47551;52.506;4.678;2022-09-30T00:23:28;9.70;;;8.60;;
61642;SDS011;47551;52.506;4.678;2022-09-30T00:23:48;9.67;;;8.47;;
61642;SDS011;47551;52.506;4.678;2022-09-30T00:24:09;10.30;;;8.47;;
61642;SDS011;47551;52.506;4.678;2022-09-30T00:24:29;9.60;;;8.10;;
61642;SDS011;47551;52.506;4.678;2022-09-30T00:24:49;9.33;;;8.23;;
61642;SDS011;47551;52.506;4.678;2022-09-30T00:25:10;10.23;;;7.95;;
61642;SDS011;47551;52.506;4.678;2022-09-30T00:25:30;9.53;;;8.27;;
61642;SDS011;47551;52.506;4.678;2022-09-30T00:25:50;9.63;;;8.37;;
61642;SDS011;47551;52.506;4.678;2022-09-30T00:26:17;10.18;;;8.10;;
61642;SDS011;47551;52.506;4.678;2022-09-30T00:26:38;10.02;;;9.00;;
61642;SDS011;47551;52.506;4.678;2022-09-30T00:26:58;9.67;;;8.67;;
61642;SDS011;47551;52.506;4.678;2022-09-30T00:27:19;9.40;;;8.40;;
61642;SDS011;47551;52.506;4.678;2022-09-30T00:27:40;9.38;;;8.38;;
61642;SDS011;47551;52.506;4.678;2022-09-30T00:28:00;9.50;;;8.50;;
61642;SDS011;47551;52.506;4.678;2022-09-30T00:28:20;9.67;;;8.67;;
61642;SDS011;47551;52.506;4.678;2022-09-30T00:28:41;9.57;;;8.27;;
61642;SDS011;47551;52.506;4.678;2022-09-30T00:29:02;9.87;;;8.40;;
61642;SDS011;47551;52.506;4.678;2022-09-30T00:29:22;10.70;;;8.53;;
61642;SDS011;47551;52.506;4.678;2022-09-30T00:29:43;10.30;;;8.67;;
61642;SDS011;47551;52.506;4.678;2022-09-30T00:30:03;9.40;;;8.30;;
61642;SDS011;47551;52.506;4.678;2022-09-30T00:30:23;8.93;;;7.70;;
61642;SDS011;47551;52.506;4.678;2022-09-30T00:30:43;8.93;;;8.03;;
61642;SDS011;47551;52.506;4.678;2022-09-30T00:31:05;9.57;;;8.43;;
61642;SDS011;47551;52.506;4.678;2022-09-30T00:31:27;9.38;;;8.30;;
61642;SDS011;47551;52.506;4.678;2022-09-30T00:31:48;9.70;;;7.95;;
61642;SDS011;47551;52.506;4.678;2022-09-30T00:32:08;8.90;;;8.00;;
61642;SDS011;47551;52.506;4.678;2022-09-30T00:32:28;8.87;;;7.97;;
61642;SDS011;47551;52.506;4.678;2022-09-30T00:32:48;8.93;;;7.93;;
61642;SDS011;47551;52.506;4.678;2022-09-30T00:33:08;9.37;;;8.10;;
61642;SDS011;47551;52.506;4.678;2022-09-30T00:33:28;9.45;;;8.13;;
61642;SDS011;47551;52.506;4.678;2022-09-30T00:33:49;9.60;;;8.60;;
61642;SDS011;47551;52.506;4.678;2022-09-30T00:34:27;9.18;;;7.97;;
61642;SDS011;47551;52.506;4.678;2022-09-30T00:34:47;9.30;;;8.10;;
61642;SDS011;47551;52.506;4.678;2022-09-30T00:35:08;9.50;;;8.30;;
61642;SDS011;47551;52.506;4.678;2022-09-30T00:35:28;9.80;;;8.40;;
61642;SDS011;47551;52.506;4.678;2022-09-30T00:35:48;9.23;;;8.20;;
61642;SDS011;47551;52.506;4.678;2022-09-30T00:36:09;10.03;;;8.70;;
61642;SDS011;47551;52.506;4.678;2022-09-30T00:36:29;9.47;;;8.03;;
61642;SDS011;47551;52.506;4.678;2022-09-30T00:36:50;8.73;;;7.72;;
61642;SDS011;47551;52.506;4.678;2022-09-30T00:37:10;9.52;;;8.10;;
61642;SDS011;47551;52.506;4.678;2022-09-30T00:37:34;10.70;;;8.20;;
61642;SDS011;47551;52.506;4.678;2022-09-30T00:37:54;9.77;;;8.40;;
61642;SDS011;47551;52.506;4.678;2022-09-30T00:38:14;9.50;;;8.20;;
61642;SDS011;47551;52.506;4.678;2022-09-30T00:38:34;9.33;;;8.30;;
61642;SDS011;47551;52.506;4.678;2022-09-30T00:38:54;9.50;;;8.50;;
61642;SDS011;47551;52.506;4.678;2022-09-30T00:39:19;9.43;;;8.48;;
61642;SDS011;47551;52.506;4.678;2022-09-30T00:39:39;10.25;;;8.95;;
61642;SDS011;47551;52.506;4.678;2022-09-30T00:40:00;9.60;;;8.60;;
61642;SDS011;47551;52.506;4.678;2022-09-30T00:40:20;9.57;;;8.30;;
61642;SDS011;47551;52.506;4.678;2022-09-30T00:40:41;9.02;;;8.13;;
61642;SDS011;47551;52.506;4.678;2022-09-30T00:41:02;9.30;;;8.15;;
61642;SDS011;47551;52.506;4.678;2022-09-30T00:41:22;9.20;;;8.30;;
61642;SDS011;47551;52.506;4.678;2022-09-30T00:41:43;9.73;;;8.73;;
61642;SDS011;47551;52.506;4.678;2022-09-30T00:42:05;9.45;;;8.45;;
61642;SDS011;47551;52.506;4.678;2022-09-30T00:42:26;9.55;;;8.55;;
61642;SDS011;47551;52.506;4.678;2022-09-30T00:42:48;9.52;;;8.32;;
61642;SDS011;47551;52.506;4.678;2022-09-30T00:43:13;9.60;;;8.20;;
61642;SDS011;47551;52.506;4.678;2022-09-30T00:43:38;9.55;;;8.23;;
61642;SDS011;47551;52.506;4.678;2022-09-30T00:44:00;9.82;;;8.02;;
61642;SDS011;47551;52.506;4.678;2022-09-30T00:45:03;9.70;;;7.82;;
61642;SDS011;47551;52.506;4.678;2022-09-30T00:45:24;9.88;;;8.40;;
61642;SDS011;47551;52.506;4.678;2022-09-30T00:45:48;9.75;;;8.27;;
61642;SDS011;47551;52.506;4.678;2022-09-30T00:46:26;9.02;;;8.10;;
61642;SDS011;47551;52.506;4.678;2022-09-30T00:46:48;9.35;;;8.35;;
61642;SDS011;47551;52.506;4.678;2022-09-30T00:47:16;9.33;;;8.33;;
61642;SDS011;47551;52.506;4.678;2022-09-30T00:47:45;9.27;;;7.95;;
61642;SDS011;47551;52.506;4.678;2022-09-30T00:48:10;9.27;;;8.10;;
61642;SDS011;47551;52.506;4.678;2022-09-30T00:48:32;9.00;;;8.10;;
61642;SDS011;47551;52.506;4.678;2022-09-30T00:48:54;10.65;;;8.23;;
61642;SDS011;47551;52.506;4.678;2022-09-30T00:49:19;10.60;;;8.18;;
61642;SDS011;47551;52.506;4.678;2022-09-30T00:49:41;8.77;;;7.88;;
61642;SDS011;47551;52.506;4.678;2022-09-30T00:50:35;9.52;;;8.05;;
61642;SDS011;47551;52.506;4.678;2022-09-30T00:50:57;9.07;;;7.72;;
61642;SDS011;47551;52.506;4.678;2022-09-30T00:51:17;9.27;;;7.75;;
61642;SDS011;47551;52.506;4.678;2022-09-30T00:51:38;9.13;;;7.53;;
61642;SDS011;47551;52.506;4.678;2022-09-30T00:51:59;8.68;;;7.63;;
61642;SDS011;47551;52.506;4.678;2022-09-30T00:52:44;9.52;;;8.15;;
61642;SDS011;47551;52.506;4.678;2022-09-30T00:53:16;9.35;;;8.18;;
61642;SDS011;47551;52.506;4.678;2022-09-30T00:53:38;9.10;;;7.90;;
61642;SDS011;47551;52.506;4.678;2022-09-30T00:54:09;8.73;;;7.70;;
61642;SDS011;47551;52.506;4.678;2022-09-30T00:54:29;9.30;;;8.30;;
61642;SDS011;47551;52.506;4.678;2022-09-30T00:54:50;9.40;;;8.23;;
61642;SDS011;47551;52.506;4.678;2022-09-30T00:55:16;9.57;;;7.90;;
61642;SDS011;47551;52.506;4.678;2022-09-30T00:56:06;10.20;;;8.43;;
61642;SDS011;47551;52.506;4.678;2022-09-30T00:56:30;9.35;;;8.20;;
61642;SDS011;47551;52.506;4.678;2022-09-30T00:56:53;9.35;;;8.00;;
61642;SDS011;47551;52.506;4.678;2022-09-30T00:57:14;9.40;;;8.13;;
61642;SDS011;47551;52.506;4.678;2022-09-30T00:57:35;8.70;;;7.73;;
61642;SDS011;47551;52.506;4.678;2022-09-30T00:57:55;9.32;;;8.07;;
61642;SDS011;47551;52.506;4.678;2022-09-30T00:58:21;9.73;;;8.10;;
61642;SDS011;47551;52.506;4.678;2022-09-30T00:59:08;10.93;;;8.32;;
61642;SDS011;47551;52.506;4.678;2022-09-30T00:59:30;9.27;;;7.88;;
61642;SDS011;47551;52.506;4.678;2022-09-30T00:59:52;9.45;;;8.38;;
61642;SDS011;47551;52.506;4.678;2022-09-30T01:00:12;9.43;;;8.40;;
61642;SDS011;47551;52.506;4.678;2022-09-30T01:00:32;9.13;;;8.00;;
61642;SDS011;47551;52.506;4.678;2022-09-30T01:00:52;9.33;;;8.00;;
61642;SDS011;47551;52.506;4.678;2022-09-30T01:01:17;9.85;;;8.38;;
61642;SDS011;47551;52.506;4.678;2022-09-30T01:01:38;9.05;;;8.10;;
61642;SDS011;47551;52.506;4.678;2022-09-30T01:01:59;8.70;;;7.70;;
61642;SDS011;47551;52.506;4.678;2022-09-30T01:02:20;9.07;;;8.13;;
61642;SDS011;47551;52.506;4.678;2022-09-30T01:02:40;9.50;;;8.07;;
61642;SDS011;47551;52.506;4.678;2022-09-30T01:03:00;9.40;;;7.77;;
61642;SDS011;47551;52.506;4.678;2022-09-30T01:03:21;9.30;;;7.70;;
61642;SDS011;47551;52.506;4.678;2022-09-30T01:03:42;9.48;;;8.02;;
61642;SDS011;47551;52.506;4.678;2022-09-30T01:04:05;9.27;;;7.90;;
61642;SDS011;47551;52.506;4.678;2022-09-30T01:04:29;9.95;;;7.97;;
61642;SDS011;47551;52.506;4.678;2022-09-30T01:04:50;9.13;;;7.95;;
61642;SDS011;47551;52.506;4.678;2022-09-30T01:05:10;8.70;;;7.50;;
61642;SDS011;47551;52.506;4.678;2022-09-30T01:05:32;8.80;;;7.70;;
61642;SDS011;47551;52.506;4.678;2022-09-30T01:05:53;8.63;;;7.72;;
61642;SDS011;47551;52.506;4.678;2022-09-30T01:06:13;8.70;;;7.50;;
61642;SDS011;47551;52.506;4.678;2022-09-30T01:06:34;8.93;;;7.80;;
61642;SDS011;47551;52.506;4.678;2022-09-30T01:06:54;8.80;;;7.57;;
61642;SDS011;47551;52.506;4.678;2022-09-30T01:07:14;9.07;;;7.37;;
61642;SDS011;47551;52.506;4.678;2022-09-30T01:07:34;8.87;;;7.23;;
61642;SDS011;47551;52.506;4.678;2022-09-30T01:07:55;8.63;;;7.70;;
61642;SDS011;47551;52.506;4.678;2022-09-30T01:08:16;8.45;;;7.55;;
61642;SDS011;47551;52.506;4.678;2022-09-30T01:08:37;8.73;;;7.60;;
61642;SDS011;47551;52.506;4.678;2022-09-30T01:08:59;10.05;;;7.97;;
61642;SDS011;47551;52.506;4.678;2022-09-30T01:09:19;8.60;;;7.40;;
61642;SDS011;47551;52.506;4.678;2022-09-30T01:09:40;9.13;;;7.47;;
61642;SDS011;47551;52.506;4.678;2022-09-30T01:10:01;9.32;;;7.53;;
61642;SDS011;47551;52.506;4.678;2022-09-30T01:10:22;9.17;;;7.57;;
61642;SDS011;47551;52.506;4.678;2022-09-30T01:10:42;9.13;;;7.70;;
61642;SDS011;47551;52.506;4.678;2022-09-30T01:11:02;9.20;;;8.23;;
61642;SDS011;47551;52.506;4.678;2022-09-30T01:11:23;8.67;;;7.77;;
61642;SDS011;47551;52.506;4.678;2022-09-30T01:11:43;9.32;;;7.80;;
61642;SDS011;47551;52.506;4.678;2022-09-30T01:12:04;9.00;;;7.70;;
61642;SDS011;47551;52.506;4.678;2022-09-30T01:12:26;9.18;;;7.93;;
61642;SDS011;47551;52.506;4.678;2022-09-30T01:12:46;8.90;;;8.00;;
61642;SDS011;47551;52.506;4.678;2022-09-30T01:13:06;9.20;;;7.87;;
61642;SDS011;47551;52.506;4.678;2022-09-30T01:13:26;9.60;;;7.70;;
61642;SDS011;47551;52.506;4.678;2022-09-30T01:13:49;8.57;;;7.22;;
61642;SDS011;47551;52.506;4.678;2022-09-30T01:14:12;8.57;;;7.13;;
61642;SDS011;47551;52.506;4.678;2022-09-30T01:14:36;9.68;;;7.68;;
61642;SDS011;47551;52.506;4.678;2022-09-30T01:14:57;9.52;;;7.72;;
61642;SDS011;47551;52.506;4.678;2022-09-30T01:15:19;8.57;;;7.35;;
61642;SDS011;47551;52.506;4.678;2022-09-30T01:16:36;9.88;;;7.85;;
61642;SDS011;47551;52.506;4.678;2022-09-30T01:18:45;9.07;;;7.53;;
61642;SDS011;47551;52.506;4.678;2022-09-30T01:25:01;8.90;;;7.40;;
61642;SDS011;47551;52.506;4.678;2022-09-30T01:28:00;8.68;;;7.43;;
61642;SDS011;47551;52.506;4.678;2022-09-30T01:28:47;8.38;;;6.93;;
61642;SDS011;47551;52.506;4.678;2022-09-30T01:29:30;9.25;;;7.35;;
61642;SDS011;47551;52.506;4.678;2022-09-30T01:30:03;8.30;;;7.00;;
61642;SDS011;47551;52.506;4.678;2022-09-30T01:33:08;8.73;;;7.55;;
61642;SDS011;47551;52.506;4.678;2022-09-30T01:34:02;9.30;;;7.55;;
61642;SDS011;47551;52.506;4.678;2022-09-30T01:34:32;9.18;;;7.40;;
61642;SDS011;47551;52.506;4.678;2022-09-30T01:39:28;10.18;;;7.65;;
61642;SDS011;47551;52.506;4.678;2022-09-30T01:40:02;8.38;;;7.30;;
61642;SDS011;47551;52.506;4.678;2022-09-30T01:40:27;9.20;;;7.65;;
61642;SDS011;47551;52.506;4.678;2022-09-30T01:40:57;8.70;;;7.45;;
61642;SDS011;47551;52.506;4.678;2022-09-30T01:42:34;8.40;;;7.15;;
61642;SDS011;47551;52.506;4.678;2022-09-30T01:43:56;8.35;;;7.13;;
61642;SDS011;47551;52.506;4.678;2022-09-30T01:44:19;9.32;;;7.50;;
61642;SDS011;47551;52.506;4.678;2022-09-30T01:45:09;9.23;;;7.10;;
61642;SDS011;47551;52.506;4.678;2022-09-30T01:45:41;8.63;;;7.32;;
61642;SDS011;47551;52.506;4.678;2022-09-30T01:46:02;8.60;;;7.20;;
61642;SDS011;47551;52.506;4.678;2022-09-30T01:46:37;8.55;;;7.25;;
61642;SDS011;47551;52.506;4.678;2022-09-30T01:48:14;9.23;;;7.47;;
61642;SDS011;47551;52.506;4.678;2022-09-30T01:48:39;8.65;;;7.43;;
61642;SDS011;47551;52.506;4.678;2022-09-30T01:49:07;9.18;;;7.22;;
61642;SDS011;47551;52.506;4.678;2022-09-30T01:49:45;9.15;;;7.20;;
61642;SDS011;47551;52.506;4.678;2022-09-30T01:50:15;9.30;;;7.47;;
61642;SDS011;47551;52.506;4.678;2022-09-30T01:50:41;9.02;;;7.10;;
61642;SDS011;47551;52.506;4.678;2022-09-30T01:51:31;8.45;;;7.40;;
61642;SDS011;47551;52.506;4.678;2022-09-30T01:53:20;8.45;;;7.10;;
61642;SDS011;47551;52.506;4.678;2022-09-30T01:53:46;8.00;;;7.20;;
61642;SDS011;47551;52.506;4.678;2022-09-30T01:54:58;8.17;;;7.20;;
61642;SDS011;47551;52.506;4.678;2022-09-30T01:56:36;8.88;;;7.20;;
61642;SDS011;47551;52.506;4.678;2022-09-30T01:57:00;8.75;;;7.55;;
61642;SDS011;47551;52.506;4.678;2022-09-30T01:57:26;8.85;;;7.68;;
61642;SDS011;47551;52.506;4.678;2022-09-30T01:57:55;9.20;;;7.30;;
61642;SDS011;47551;52.506;4.678;2022-09-30T01:58:23;8.45;;;7.10;;
61642;SDS011;47551;52.506;4.678;2022-09-30T01:58:52;8.68;;;7.07;;
61642;SDS011;47551;52.506;4.678;2022-09-30T01:59:20;7.95;;;7.13;;
61642;SDS011;47551;52.506;4.678;2022-09-30T01:59:42;8.48;;;7.22;;
61642;SDS011;47551;52.506;4.678;2022-09-30T02:00:26;8.25;;;7.22;;
61642;SDS011;47551;52.506;4.678;2022-09-30T02:00:48;8.20;;;7.18;;
61642;SDS011;47551;52.506;4.678;2022-09-30T02:01:12;8.10;;;7.10;;
61642;SDS011;47551;52.506;4.678;2022-09-30T02:01:36;7.88;;;7.05;;
61642;SDS011;47551;52.506;4.678;2022-09-30T02:02:00;8.82;;;6.80;;
61642;SDS011;47551;52.506;4.678;2022-09-30T02:02:25;8.43;;;7.00;;
61642;SDS011;47551;52.506;4.678;2022-09-30T02:02:47;7.97;;;6.93;;
61642;SDS011;47551;52.506;4.678;2022-09-30T02:03:11;8.40;;;7.30;;
61642;SDS011;47551;52.506;4.678;2022-09-30T02:03:43;8.90;;;7.18;;
61642;SDS011;47551;52.506;4.678;2022-09-30T02:04:08;7.88;;;6.80;;
61642;SDS011;47551;52.506;4.678;2022-09-30T02:04:30;8.50;;;6.70;;
61642;SDS011;47551;52.506;4.678;2022-09-30T02:04:53;8.00;;;6.90;;
61642;SDS011;47551;52.506;4.678;2022-09-30T02:05:22;9.57;;;7.15;;
61642;SDS011;47551;52.506;4.678;2022-09-30T02:06:35;7.60;;;6.72;;
61642;SDS011;47551;52.506;4.678;2022-09-30T02:06:54;8.00;;;6.95;;
61642;SDS011;47551;52.506;4.678;2022-09-30T02:07:18;8.00;;;7.00;;
61642;SDS011;47551;52.506;4.678;2022-09-30T02:08:23;8.55;;;7.28;;
61642;SDS011;47551;52.506;4.678;2022-09-30T02:09:07;8.85;;;6.60;;
61642;SDS011;47551;52.506;4.678;2022-09-30T02:09:55;8.55;;;6.95;;
61642;SDS011;47551;52.506;4.678;2022-09-30T02:10:22;8.55;;;6.72;;
61642;SDS011;47551;52.506;4.678;2022-09-30T02:10:45;8.23;;;6.70;;
61642;SDS011;47551;52.506;4.678;2022-09-30T02:11:08;8.15;;;6.70;;
61642;SDS011;47551;52.506;4.678;2022-09-30T02:11:34;8.02;;;6.80;;
61642;SDS011;47551;52.506;4.678;2022-09-30T02:11:58;8.60;;;6.65;;
61642;SDS011;47551;52.506;4.678;2022-09-30T02:12:20;8.70;;;6.93;;
61642;SDS011;47551;52.506;4.678;2022-09-30T02:12:45;8.23;;;6.78;;
61642;SDS011;47551;52.506;4.678;2022-09-30T02:13:08;9.00;;;7.15;;
61642;SDS011;47551;52.506;4.678;2022-09-30T02:13:38;8.32;;;6.57;;
61642;SDS011;47551;52.506;4.678;2022-09-30T02:14:26;7.65;;;6.80;;
61642;SDS011;47551;52.506;4.678;2022-09-30T02:14:48;7.68;;;6.30;;
61642;SDS011;47551;52.506;4.678;2022-09-30T02:15:11;7.63;;;6.28;;
61642;SDS011;47551;52.506;4.678;2022-09-30T02:15:34;8.88;;;6.53;;
61642;SDS011;47551;52.506;4.678;2022-09-30T02:15:56;7.80;;;6.20;;
61642;SDS011;47551;52.506;4.678;2022-09-30T02:16:25;8.50;;;6.30;;
61642;SDS011;47551;52.506;4.678;2022-09-30T02:17:01;6.93;;;5.90;;
61642;SDS011;47551;52.506;4.678;2022-09-30T02:17:23;6.85;;;6.00;;
61642;SDS011;47551;52.506;4.678;2022-09-30T02:17:47;8.07;;;6.00;;
61642;SDS011;47551;52.506;4.678;2022-09-30T02:18:11;7.93;;;6.70;;
61642;SDS011;47551;52.506;4.678;2022-09-30T02:18:37;7.50;;;6.50;;
61642;SDS011;47551;52.506;4.678;2022-09-30T02:19:02;7.72;;;6.50;;
61642;SDS011;47551;52.506;4.678;2022-09-30T02:19:26;7.35;;;6.43;;
61642;SDS011;47551;52.506;4.678;2022-09-30T02:19:57;7.50;;;6.43;;
61642;SDS011;47551;52.506;4.678;2022-09-30T02:20:40;8.33;;;6.70;;
61642;SDS011;47551;52.506;4.678;2022-09-30T02:21:02;7.60;;;6.50;;
61642;SDS011;47551;52.506;4.678;2022-09-30T02:21:30;8.02;;;6.50;;
61642;SDS011;47551;52.506;4.678;2022-09-30T02:21:53;7.60;;;6.40;;
61642;SDS011;47551;52.506;4.678;2022-09-30T02:22:19;7.60;;;6.53;;
61642;SDS011;47551;52.506;4.678;2022-09-30T02:22:44;7.43;;;6.20;;
61642;SDS011;47551;52.506;4.678;2022-09-30T02:23:07;7.68;;;6.70;;
61642;SDS011;47551;52.506;4.678;2022-09-30T02:23:35;7.13;;;6.30;;
61642;SDS011;47551;52.506;4.678;2022-09-30T02:24:02;7.85;;;6.50;;
61642;SDS011;47551;52.506;4.678;2022-09-30T02:24:24;6.90;;;5.97;;
61642;SDS011;47551;52.506;4.678;2022-09-30T02:24:46;7.05;;;6.15;;
61642;SDS011;47551;52.506;4.678;2022-09-30T02:25:09;7.90;;;6.30;;
61642;SDS011;47551;52.506;4.678;2022-09-30T02:25:54;7.22;;;6.18;;
61642;SDS011;47551;52.506;4.678;2022-09-30T02:26:22;7.97;;;6.22;;
61642;SDS011;47551;52.506;4.678;2022-09-30T02:26:44;8.45;;;6.07;;
61642;SDS011;47551;52.506;4.678;2022-09-30T02:27:07;7.05;;;5.90;;
61642;SDS011;47551;52.506;4.678;2022-09-30T02:27:32;7.65;;;6.28;;
61642;SDS011;47551;52.506;4.678;2022-09-30T02:27:56;8.35;;;6.60;;
61642;SDS011;47551;52.506;4.678;2022-09-30T02:28:24;7.78;;;6.18;;
61642;SDS011;47551;52.506;4.678;2022-09-30T02:28:51;7.65;;;5.90;;
61642;SDS011;47551;52.506;4.678;2022-09-30T02:29:14;7.35;;;6.35;;
61642;SDS011;47551;52.506;4.678;2022-09-30T02:29:38;8.07;;;6.45;;
61642;SDS011;47551;52.506;4.678;2022-09-30T02:29:59;8.02;;;6.70;;
61642;SDS011;47551;52.506;4.678;2022-09-30T02:30:20;7.53;;;6.10;;
61642;SDS011;47551;52.506;4.678;2022-09-30T02:30:41;7.47;;;6.00;;
61642;SDS011;47551;52.506;4.678;2022-09-30T02:31:04;6.70;;;5.80;;
61642;SDS011;47551;52.506;4.678;2022-09-30T02:31:27;7.00;;;5.75;;
61642;SDS011;47551;52.506;4.678;2022-09-30T02:31:49;7.57;;;6.00;;
61642;SDS011;47551;52.506;4.678;2022-09-30T02:32:14;7.43;;;5.72;;
61642;SDS011;47551;52.506;4.678;2022-09-30T02:33:07;6.97;;;5.78;;
61642;SDS011;47551;52.506;4.678;2022-09-30T02:33:35;6.90;;;5.90;;
61642;SDS011;47551;52.506;4.678;2022-09-30T02:34:18;7.10;;;5.70;;
61642;SDS011;47551;52.506;4.678;2022-09-30T02:34:38;7.88;;;6.20;;
61642;SDS011;47551;52.506;4.678;2022-09-30T02:35:02;7.25;;;5.90;;
61642;SDS011;47551;52.506;4.678;2022-09-30T02:35:26;6.90;;;5.88;;
61642;SDS011;47551;52.506;4.678;2022-09-30T02:35:51;8.30;;;5.70;;
61642;SDS011;47551;52.506;4.678;2022-09-30T02:36:27;7.82;;;5.85;;
61642;SDS011;47551;52.506;4.678;2022-09-30T02:36:54;6.85;;;5.60;;
61642;SDS011;47551;52.506;4.678;2022-09-30T02:37:20;7.20;;;5.90;;
61642;SDS011;47551;52.506;4.678;2022-09-30T02:37:44;8.10;;;5.93;;
61642;SDS011;47551;52.506;4.678;2022-09-30T02:38:12;7.18;;;5.97;;
61642;SDS011;47551;52.506;4.678;2022-09-30T02:38:38;7.75;;;6.40;;
61642;SDS011;47551;52.506;4.678;2022-09-30T02:39:02;7.82;;;6.10;;
61642;SDS011;47551;52.506;4.678;2022-09-30T02:39:38;6.82;;;6.10;;
61642;SDS011;47551;52.506;4.678;2022-09-30T02:40:02;8.43;;;5.97;;
61642;SDS011;47551;52.506;4.678;2022-09-30T02:40:27;9.02;;;6.15;;
61642;SDS011;47551;52.506;4.678;2022-09-30T02:41:16;6.43;;;5.50;;
61642;SDS011;47551;52.506;4.678;2022-09-30T02:41:45;6.90;;;5.50;;
61642;SDS011;47551;52.506;4.678;2022-09-30T02:43:00;6.78;;;5.75;;
61642;SDS011;47551;52.506;4.678;2022-09-30T02:43:22;6.90;;;5.80;;
61642;SDS011;47551;52.506;4.678;2022-09-30T02:43:42;7.17;;;5.90;;
61642;SDS011;47551;52.506;4.678;2022-09-30T02:44:02;7.37;;;6.03;;
61642;SDS011;47551;52.506;4.678;2022-09-30T02:44:22;7.23;;;5.93;;
61642;SDS011;47551;52.506;4.678;2022-09-30T02:44:43;7.72;;;6.40;;
61642;SDS011;47551;52.506;4.678;2022-09-30T02:45:04;7.80;;;6.30;;
61642;SDS011;47551;52.506;4.678;2022-09-30T02:45:27;7.07;;;5.82;;
61642;SDS011;47551;52.506;4.678;2022-09-30T02:45:52;7.13;;;5.93;;
61642;SDS011;47551;52.506;4.678;2022-09-30T02:48:27;7.10;;;5.97;;
61642;SDS011;47551;52.506;4.678;2022-09-30T02:49:36;7.85;;;5.90;;
61642;SDS011;47551;52.506;4.678;2022-09-30T02:50:24;7.82;;;6.00;;
61642;SDS011;47551;52.506;4.678;2022-09-30T02:51:19;7.73;;;6.00;;
61642;SDS011;47551;52.506;4.678;2022-09-30T02:52:35;7.80;;;5.90;;
61642;SDS011;47551;52.506;4.678;2022-09-30T02:53:01;7.47;;;6.35;;
61642;SDS011;47551;52.506;4.678;2022-09-30T02:53:44;7.30;;;6.20;;
61642;SDS011;47551;52.506;4.678;2022-09-30T02:55:14;7.03;;;5.80;;
61642;SDS011;47551;52.506;4.678;2022-09-30T02:56:40;7.32;;;6.13;;
61642;SDS011;47551;52.506;4.678;2022-09-30T02:57:06;6.45;;;5.63;;
61642;SDS011;47551;52.506;4.678;2022-09-30T02:57:37;7.25;;;5.82;;
61642;SDS011;47551;52.506;4.678;2022-09-30T02:58:19;7.13;;;6.20;;
61642;SDS011;47551;52.506;4.678;2022-09-30T02:58:40;7.80;;;6.55;;
61642;SDS011;47551;52.506;4.678;2022-09-30T02:59:02;7.72;;;6.38;;
61642;SDS011;47551;52.506;4.678;2022-09-30T02:59:22;8.83;;;6.50;;
61642;SDS011;47551;52.506;4.678;2022-09-30T02:59:44;7.60;;;6.60;;
61642;SDS011;47551;52.506;4.678;2022-09-30T03:00:04;7.68;;;6.60;;
61642;SDS011;47551;52.506;4.678;2022-09-30T03:00:25;7.47;;;6.43;;